Time;durP1;ratioP1;P1;durP2;ratioP2;P2;SDS_P1;SDS_P2;PMS_P1;PMS_P2;Temp;Humidity;BMP_temperature;BMP_pressure;BME280_temperature;BME280_humidity;BME280_pressure;Samples;Min_cycle;Max_cycle;Signal;HPM_P1;HPM_P2
2022/01/07 00:00:17;;;;;;;17.15;11.60;;;;;;;-0.48;100.00;96689.72;4984308;28;20077;-58
2022/01/07 00:02:46;;;;;;;15.02;10.77;;;;;;;-0.57;100.00;96687.53;4982176;28;20449;-55
2022/01/07 00:05:16;;;;;;;17.17;10.73;;;;;;;-0.75;100.00;96686.66;4986283;28;20073;-59
2022/01/07 00:07:44;;;;;;;19.42;12.23;;;;;;;-0.55;100.00;96680.53;4983677;28;20529;-59
2022/01/07 00:10:16;;;;;;;20.67;12.40;;;;;;;-0.63;100.00;96690.41;4987802;28;20097;-60
2022/01/07 00:12:44;;;;;;;17.48;11.75;;;;;;;-0.50;100.00;96694.94;4989492;28;20492;-59
2022/01/07 00:15:13;;;;;;;20.13;12.40;;;;;;;-0.50;100.00;96675.97;4983272;28;20074;-61
2022/01/07 00:17:41;;;;;;;18.45;11.73;;;;;;;-0.86;100.00;96686.28;4988172;28;20057;-59
2022/01/07 00:20:11;;;;;;;15.27;12.15;;;;;;;-1.04;100.00;96681.00;4981962;28;20473;-58
2022/01/07 00:22:42;;;;;;;18.02;12.05;;;;;;;-1.01;100.00;96687.81;4985003;28;20066;-60
2022/01/07 00:25:12;;;;;;;15.55;10.85;;;;;;;-1.01;100.00;96687.81;4987410;28;20086;-57
2022/01/07 00:27:41;;;;;;;14.68;10.48;;;;;;;-0.89;100.00;96689.84;4981119;28;20069;-58
2022/01/07 00:30:11;;;;;;;16.25;10.23;;;;;;;-0.84;100.00;96692.22;4984788;28;20082;-61
2022/01/07 00:32:40;;;;;;;14.30;9.98;;;;;;;-0.75;100.00;96700.44;4989271;28;20076;-57
2022/01/07 00:35:10;;;;;;;13.18;10.10;;;;;;;-0.70;100.00;96697.63;4983123;28;20679;-60
2022/01/07 00:37:38;;;;;;;14.57;10.13;;;;;;;-0.89;100.00;96699.38;4985799;28;20088;-59
2022/01/07 00:40:11;;;;;;;13.27;10.98;;;;;;;-0.94;100.00;96691.78;4985320;28;20078;-59
2022/01/07 00:42:39;;;;;;;13.70;10.30;;;;;;;-0.88;100.00;96696.72;4984095;28;20077;-59
2022/01/07 00:45:08;;;;;;;12.00;9.25;;;;;;;-0.80;100.00;96686.00;4984196;28;20058;-59
2022/01/07 00:47:37;;;;;;;14.45;9.70;;;;;;;-0.91;100.00;96693.41;4982616;28;20809;-57
2022/01/07 00:50:07;;;;;;;20.00;13.35;;;;;;;-0.85;100.00;96682.78;4986939;28;20059;-61
2022/01/07 00:52:35;;;;;;;15.00;11.20;;;;;;;-0.86;100.00;96684.56;4991516;28;20085;-58
2022/01/07 00:55:04;;;;;;;15.30;10.68;;;;;;;-0.91;100.00;96685.66;4986955;28;20497;-61
2022/01/07 00:57:34;;;;;;;15.35;11.13;;;;;;;-0.72;100.00;96684.75;4988402;28;20062;-60
2022/01/07 01:00:05;;;;;;;14.43;10.57;;;;;;;-0.91;100.00;96683.06;4987422;28;20066;-57
2022/01/07 01:02:34;;;;;;;15.90;10.80;;;;;;;-0.80;100.00;96681.66;4980012;28;20082;-60
2022/01/07 01:05:04;;;;;;;14.15;10.55;;;;;;;-0.93;100.00;96680.53;4989001;28;20081;-60
2022/01/07 01:07:32;;;;;;;17.75;11.57;;;;;;;-0.94;100.00;96672.84;4984943;28;20113;-52
2022/01/07 01:10:01;;;;;;;18.45;10.90;;;;;;;-1.00;100.00;96674.81;4988430;28;20081;-54
2022/01/07 01:12:29;;;;;;;17.88;11.30;;;;;;;-0.87;100.00;96667.31;4988503;28;20476;-55
2022/01/07 01:14:59;;;;;;;21.30;11.93;;;;;;;-0.78;100.00;96660.88;4988244;28;20066;-60
2022/01/07 01:17:28;;;;;;;15.07;11.18;;;;;;;-0.95;100.00;96659.06;4986271;28;20065;-58
2022/01/07 01:19:56;;;;;;;19.80;11.07;;;;;;;-1.11;100.00;96658.06;4985151;28;20050;-60
2022/01/07 01:22:25;;;;;;;16.27;11.48;;;;;;;-1.06;100.00;96654.38;4985886;28;20497;-57
2022/01/07 01:24:53;;;;;;;17.50;11.45;;;;;;;-0.91;100.00;96652.84;4983631;28;20890;-61
2022/01/07 01:27:22;;;;;;;19.52;13.27;;;;;;;-0.90;100.00;96649.31;4984987;28;20066;-58
2022/01/07 01:29:50;;;;;;;20.70;12.98;;;;;;;-0.82;100.00;96644.66;4981566;28;20078;-58
2022/01/07 01:32:20;;;;;;;19.50;12.38;;;;;;;-0.93;100.00;96638.28;4991334;28;20066;-59
2022/01/07 01:34:49;;;;;;;15.48;11.82;;;;;;;-0.90;100.00;96631.22;4983681;28;20074;-55
2022/01/07 01:37:17;;;;;;;19.08;11.25;;;;;;;-0.87;100.00;96631.06;4986606;28;20070;-58
2022/01/07 01:39:46;;;;;;;14.80;12.00;;;;;;;-1.00;100.00;96630.81;4987765;28;20085;-60
2022/01/07 01:42:14;;;;;;;14.13;10.98;;;;;;;-0.97;100.00;96629.81;4984376;28;20070;-56
2022/01/07 01:44:43;;;;;;;14.85;9.40;;;;;;;-0.91;100.00;96626.94;4982819;28;20066;-59
2022/01/07 01:47:11;;;;;;;14.07;8.82;;;;;;;-0.83;100.00;96621.41;4984166;28;20533;-59
2022/01/07 01:49:41;;;;;;;14.63;8.70;;;;;;;-0.83;100.00;96614.47;4981047;28;20074;-59
2022/01/07 01:52:10;;;;;;;13.43;9.00;;;;;;;-0.94;100.00;96618.50;4985499;28;20082;-60
2022/01/07 01:54:38;;;;;;;9.75;8.38;;;;;;;-0.87;100.00;96607.78;4987340;28;21619;-60
2022/01/07 01:57:07;;;;;;;9.43;7.78;;;;;;;-0.74;100.00;96613.22;4983837;28;20074;-55
2022/01/07 01:59:35;;;;;;;9.85;7.72;;;;;;;-0.89;100.00;96612.19;4986393;28;20078;-59
2022/01/07 02:02:04;;;;;;;11.48;7.50;;;;;;;-0.83;100.00;96619.66;4985840;28;20070;-59
2022/01/07 02:04:33;;;;;;;12.00;7.93;;;;;;;-0.79;100.00;96608.28;4979952;28;20140;-61
2022/01/07 02:07:03;;;;;;;10.32;7.30;;;;;;;-0.76;100.00;96602.97;4988417;28;20078;-60
2022/01/07 02:09:35;;;;;;;8.75;7.75;;;;;;;-0.91;100.00;96608.84;4980546;28;20074;-62
2022/01/07 02:12:06;;;;;;;10.65;7.70;;;;;;;-0.78;100.00;96604.78;4983015;28;20067;-61
2022/01/07 02:14:35;;;;;;;8.40;7.38;;;;;;;-0.76;100.00;96602.97;4985562;28;20061;-58
2022/01/07 02:17:05;;;;;;;9.25;7.35;;;;;;;-0.81;100.00;96599.72;4983681;28;20641;-60
2022/01/07 02:19:35;;;;;;;11.15;6.93;;;;;;;-0.87;100.00;96610.38;4981264;28;20085;-59
2022/01/07 02:22:05;;;;;;;9.23;7.28;;;;;;;-0.95;100.00;96615.06;4986721;28;20089;-60
2022/01/07 02:24:34;;;;;;;8.15;6.93;;;;;;;-0.92;100.00;96621.84;4984488;28;20449;-59
2022/01/07 02:27:03;;;;;;;8.18;6.55;;;;;;;-1.20;100.00;96623.94;4985334;28;20073;-58
2022/01/07 02:29:32;;;;;;;8.25;6.95;;;;;;;-1.14;100.00;96625.41;4984148;28;20070;-61
2022/01/07 02:32:00;;;;;;;11.10;6.80;;;;;;;-1.25;100.00;96619.88;4981518;28;20073;-58
2022/01/07 02:34:28;;;;;;;7.72;6.93;;;;;;;-1.11;100.00;96619.25;4986536;28;20082;-59
2022/01/07 02:36:58;;;;;;;7.20;6.43;;;;;;;-1.08;100.00;96616.53;4985462;28;20173;-60
2022/01/07 02:39:27;;;;;;;7.25;6.55;;;;;;;-1.21;100.00;96601.53;4984793;28;20494;-59
2022/01/07 02:41:55;;;;;;;8.32;6.47;;;;;;;-1.34;100.00;96610.78;4985659;28;20468;-61
2022/01/07 02:44:24;;;;;;;7.43;6.72;;;;;;;-1.27;100.00;96612.19;4982985;28;20077;-60
2022/01/07 02:46:52;;;;;;;8.02;6.65;;;;;;;-1.45;100.00;96613.00;4983681;28;20078;-57
2022/01/07 02:49:21;;;;;;;7.50;6.60;;;;;;;-1.31;100.00;96614.97;4999407;28;20140;-59
2022/01/07 02:51:49;;;;;;;8.57;6.90;;;;;;;-1.19;100.00;96609.25;4981195;28;20277;-59
2022/01/07 02:54:19;;;;;;;8.02;6.45;;;;;;;-1.28;100.00;96609.66;4984288;28;20069;-60
2022/01/07 02:56:47;;;;;;;8.85;6.82;;;;;;;-1.13;100.00;96606.41;4982477;28;20073;-58
2022/01/07 02:59:16;;;;;;;7.93;7.13;;;;;;;-1.28;100.00;96599.31;4986197;28;20073;-55
2022/01/07 03:01:45;;;;;;;7.63;6.80;;;;;;;-1.16;100.00;96591.00;4985938;28;20092;-58
2022/01/07 03:04:13;;;;;;;10.15;6.72;;;;;;;-1.13;100.00;96595.22;4990961;28;20069;-58
2022/01/07 03:06:42;;;;;;;7.13;6.32;;;;;;;-1.14;100.00;96590.94;4987446;28;20085;-58
2022/01/07 03:09:11;;;;;;;7.30;6.55;;;;;;;-1.20;100.00;96592.91;4984257;28;20101;-60
2022/01/07 03:11:41;;;;;;;8.02;6.70;;;;;;;-1.25;100.00;96583.66;4985626;28;20530;-59
2022/01/07 03:14:09;;;;;;;9.40;6.53;;;;;;;-1.30;100.00;96583.03;4984828;28;20519;-57
2022/01/07 03:16:39;;;;;;;7.93;6.63;;;;;;;-1.19;100.00;96570.44;4986967;28;20078;-58
2022/01/07 03:19:08;;;;;;;9.48;6.90;;;;;;;-1.13;100.00;96574.50;4989105;28;20089;-59
2022/01/07 03:21:36;;;;;;;7.93;6.40;;;;;;;-1.28;100.00;96587.22;4986308;28;20081;-60
2022/01/07 03:24:05;;;;;;;8.63;6.40;;;;;;;-1.24;100.00;96575.84;4987192;28;20089;-57
2022/01/07 03:26:33;;;;;;;7.82;6.93;;;;;;;-1.37;100.00;96585.06;4983874;28;20062;-60
2022/01/07 03:29:03;;;;;;;7.15;6.40;;;;;;;-1.35;100.00;96585.81;4986593;28;20478;-59
2022/01/07 03:31:32;;;;;;;8.32;6.47;;;;;;;-1.62;100.00;96584.44;4985371;28;20078;-62
2022/01/07 03:34:00;;;;;;;7.22;6.53;;;;;;;-1.45;100.00;96576.78;4987215;28;20120;-60
2022/01/07 03:36:28;;;;;;;8.75;6.57;;;;;;;-1.32;100.00;96577.09;5001147;28;20543;-57
2022/01/07 03:39:00;;;;;;;6.90;6.30;;;;;;;-1.42;100.00;96573.22;4982600;28;20085;-60
2022/01/07 03:41:28;;;;;;;6.80;6.10;;;;;;;-1.54;100.00;96562.53;4989450;28;20548;-62
2022/01/07 03:43:57;;;;;;;7.10;6.40;;;;;;;-1.38;100.00;96559.25;4986626;28;20070;-59
2022/01/07 03:46:27;;;;;;;10.48;6.75;;;;;;;-1.41;100.00;96549.91;4983155;28;20078;-61
2022/01/07 03:48:55;;;;;;;8.80;6.88;;;;;;;-1.35;100.00;96559.13;4986665;28;21669;-59
2022/01/07 03:51:24;;;;;;;9.07;6.88;;;;;;;-1.34;100.00;96553.88;4986783;28;20061;-59
2022/01/07 03:53:52;;;;;;;7.10;6.30;;;;;;;-1.37;100.00;96556.59;5002839;28;20078;-58
2022/01/07 03:56:21;;;;;;;6.85;6.25;;;;;;;-1.40;100.00;96566.25;4990103;28;20456;-60
2022/01/07 03:58:49;;;;;;;6.57;5.90;;;;;;;-1.39;100.00;96560.16;4986158;28;20512;-59
2022/01/07 04:01:18;;;;;;;8.40;6.53;;;;;;;-1.38;100.00;96567.00;4987069;28;20073;-58
2022/01/07 04:03:48;;;;;;;6.95;6.18;;;;;;;-1.50;100.00;96565.81;4986492;28;20074;-58
2022/01/07 04:06:20;;;;;;;7.13;6.43;;;;;;;-1.61;100.00;96574.06;4983163;28;20457;-57
2022/01/07 04:08:49;;;;;;;7.45;6.18;;;;;;;-1.85;100.00;96581.13;4983269;28;20074;-58
2022/01/07 04:11:18;;;;;;;8.95;6.68;;;;;;;-2.07;100.00;96588.09;4983896;28;20069;-56
2022/01/07 04:13:47;;;;;;;8.07;6.70;;;;;;;-1.96;100.00;96578.19;4984097;28;20108;-60
2022/01/07 04:16:15;;;;;;;8.65;6.88;;;;;;;-2.18;100.00;96581.66;4989195;28;20058;-61
2022/01/07 04:18:44;;;;;;;10.57;6.68;;;;;;;-2.29;100.00;96581.25;4998461;28;20195;-57
2022/01/07 04:21:14;;;;;;;7.95;6.68;;;;;;;-2.41;100.00;96592.94;4984054;28;20507;-57
2022/01/07 04:23:42;;;;;;;7.03;6.32;;;;;;;-2.23;100.00;96593.09;4982684;28;20653;-56
2022/01/07 04:26:11;;;;;;;8.98;6.50;;;;;;;-2.50;100.00;96587.31;4986245;28;20492;-56
2022/01/07 04:28:39;;;;;;;7.90;6.70;;;;;;;-2.32;100.00;96578.81;4986586;28;20076;-57
2022/01/07 04:31:08;;;;;;;8.15;6.35;;;;;;;-2.25;100.00;96571.63;5001667;28;20066;-58
2022/01/07 04:33:36;;;;;;;8.75;6.30;;;;;;;-2.12;100.00;96569.38;4997122;28;20066;-57
2022/01/07 04:36:05;;;;;;;10.52;7.35;;;;;;;-2.07;100.00;96573.44;4986413;28;20571;-54
2022/01/07 04:38:35;;;;;;;10.10;6.65;;;;;;;-2.00;100.00;96569.69;4984515;28;20081;-54
2022/01/07 04:41:04;;;;;;;9.52;6.88;;;;;;;-2.26;100.00;96569.97;4985308;28;20582;-60
2022/01/07 04:43:32;;;;;;;9.82;6.75;;;;;;;-2.18;100.00;96578.22;4982500;28;20082;-57
2022/01/07 04:46:00;;;;;;;7.18;6.20;;;;;;;-2.30;100.00;96578.75;4986583;28;20074;-60
2022/01/07 04:48:29;;;;;;;8.70;6.90;;;;;;;-2.02;100.00;96575.84;4984630;28;20062;-53
2022/01/07 04:50:57;;;;;;;8.85;5.95;;;;;;;-2.10;100.00;96570.16;4990826;28;20058;-57
2022/01/07 04:53:26;;;;;;;9.27;6.53;;;;;;;-2.49;100.00;96578.66;4984355;28;20077;-59
2022/01/07 04:55:58;;;;;;;7.18;6.50;;;;;;;-2.28;100.00;96580.34;4989154;28;20096;-55
2022/01/07 04:58:27;;;;;;;7.57;6.80;;;;;;;-2.13;100.00;96576.31;4986861;28;20074;-58
2022/01/07 05:00:55;;;;;;;7.80;7.00;;;;;;;-2.07;100.00;96576.03;4983058;28;20066;-57
2022/01/07 05:03:24;;;;;;;7.90;6.75;;;;;;;-2.04;100.00;96575.06;4985263;28;20085;-58
2022/01/07 05:06:03;;;;;;;7.97;6.30;;;;;;;-2.07;100.00;96572.59;4986975;28;20070;-52
2022/01/07 05:08:31;;;;;;;8.30;6.55;;;;;;;-2.00;100.00;96574.84;4981573;28;20077;-59
2022/01/07 05:11:01;;;;;;;8.85;6.82;;;;;;;-2.00;100.00;96576.59;4985033;28;20065;-58
2022/01/07 05:13:29;;;;;;;7.97;6.60;;;;;;;-1.97;100.00;96571.31;4983966;28;20337;-59
2022/01/07 05:15:58;;;;;;;7.85;6.93;;;;;;;-1.94;100.00;96577.19;4985066;28;20524;-57
2022/01/07 05:18:26;;;;;;;7.90;6.68;;;;;;;-1.92;100.00;96580.56;4988542;28;20069;-57
2022/01/07 05:20:55;;;;;;;8.27;6.32;;;;;;;-2.40;100.00;96575.69;4982515;28;20559;-59
2022/01/07 05:23:23;;;;;;;7.57;6.88;;;;;;;-2.45;100.00;96580.19;4983917;28;20073;-57
2022/01/07 05:25:52;;;;;;;8.80;6.38;;;;;;;-2.27;100.00;96579.47;4982676;28;20073;-57
2022/01/07 05:28:22;;;;;;;9.00;7.10;;;;;;;-2.02;100.00;96578.44;4986421;28;20318;-55
2022/01/07 05:30:50;;;;;;;7.32;6.28;;;;;;;-2.13;100.00;96573.72;4983593;28;20073;-58
2022/01/07 05:33:19;;;;;;;9.02;6.72;;;;;;;-2.05;100.00;96570.81;4986418;28;20469;-55
2022/01/07 05:35:52;;;;;;;7.15;6.47;;;;;;;-2.07;100.00;96565.69;4984794;28;20070;-55
2022/01/07 05:38:20;;;;;;;11.45;7.10;;;;;;;-2.15;100.00;96563.44;4984441;28;20062;-59
2022/01/07 05:40:48;;;;;;;6.65;6.05;;;;;;;-2.12;100.00;96567.66;4987011;28;20850;-59
2022/01/07 05:43:17;;;;;;;7.32;6.28;;;;;;;-2.15;100.00;96566.03;4983282;28;20085;-56
2022/01/07 05:45:47;;;;;;;6.72;6.03;;;;;;;-2.12;100.00;96572.81;4985341;28;20070;-55
2022/01/07 05:48:19;;;;;;;7.30;6.13;;;;;;;-2.18;100.00;96576.47;4983135;28;20485;-60
2022/01/07 05:50:47;;;;;;;6.90;6.30;;;;;;;-2.19;100.00;96581.72;4984668;28;20516;-59
2022/01/07 05:53:16;;;;;;;8.48;6.45;;;;;;;-2.25;100.00;96587.13;4984106;28;20069;-61
2022/01/07 05:55:44;;;;;;;9.45;6.50;;;;;;;-2.45;100.00;96582.78;4982105;28;20089;-56
2022/01/07 05:58:12;;;;;;;12.30;9.02;;;;;;;-2.22;100.00;96584.44;4985553;28;20065;-55
2022/01/07 06:00:41;;;;;;;7.13;6.43;;;;;;;-2.44;100.00;96582.75;4980574;28;20066;-56
2022/01/07 06:03:11;;;;;;;6.85;6.18;;;;;;;-2.55;100.00;96582.31;4982647;28;20074;-60
2022/01/07 06:05:39;;;;;;;7.65;6.25;;;;;;;-2.67;100.00;96582.81;4983153;28;20073;-56
2022/01/07 06:08:09;;;;;;;7.43;6.30;;;;;;;-2.94;100.00;96595.06;4991692;28;20062;-54
2022/01/07 06:10:37;;;;;;;6.88;6.10;;;;;;;-2.85;100.00;96593.88;4982949;28;20089;-57
2022/01/07 06:13:06;;;;;;;7.40;6.57;;;;;;;-2.78;100.00;96585.81;4988488;28;20088;-59
2022/01/07 06:15:34;;;;;;;10.98;6.60;;;;;;;-3.08;100.00;96597.31;4982924;28;20070;-55
2022/01/07 06:18:04;;;;;;;9.15;6.40;;;;;;;-2.85;100.00;96588.72;4986024;28;20062;-55
2022/01/07 06:20:34;;;;;;;8.02;6.50;;;;;;;-2.75;100.00;96583.13;4985117;28;20062;-55
2022/01/07 06:23:02;;;;;;;10.07;6.50;;;;;;;-2.73;100.00;96583.06;4982216;28;20076;-58
2022/01/07 06:25:31;;;;;;;8.70;6.68;;;;;;;-2.63;100.00;96584.38;4984681;28;20088;-57
2022/01/07 06:27:59;;;;;;;7.30;6.60;;;;;;;-2.69;100.00;96582.84;4986988;28;20070;-59
2022/01/07 06:30:27;;;;;;;6.93;6.32;;;;;;;-2.49;100.00;96581.22;4983774;28;20074;-59
2022/01/07 06:32:56;;;;;;;7.40;6.57;;;;;;;-2.49;100.00;96576.06;4987924;28;20043;-60
2022/01/07 06:35:24;;;;;;;7.00;6.40;;;;;;;-2.41;100.00;96566.25;4989003;28;20172;-56
2022/01/07 06:37:54;;;;;;;10.13;6.43;;;;;;;-2.54;100.00;96578.00;4986952;28;20093;-55
2022/01/07 06:40:23;;;;;;;7.53;6.65;;;;;;;-2.49;100.00;96573.50;4984126;28;20645;-55
2022/01/07 06:42:51;;;;;;;7.50;6.57;;;;;;;-2.40;100.00;96576.53;4989699;28;20123;-58
2022/01/07 06:45:20;;;;;;;8.10;6.28;;;;;;;-2.38;100.00;96579.03;4982035;28;20081;-60
2022/01/07 06:47:49;;;;;;;9.77;6.43;;;;;;;-2.31;100.00;96584.81;4992371;28;20623;-58
2022/01/07 06:50:18;;;;;;;8.85;6.20;;;;;;;-2.38;100.00;96574.72;4986367;28;20880;-58
2022/01/07 06:52:46;;;;;;;9.00;6.95;;;;;;;-2.50;100.00;96580.41;4985421;28;20094;-58
2022/01/07 06:55:16;;;;;;;8.30;6.78;;;;;;;-2.24;100.00;96571.56;4999773;28;20074;-55
2022/01/07 06:57:49;;;;;;;7.45;6.72;;;;;;;-2.18;100.00;96565.31;4987203;28;20070;-57
2022/01/07 07:00:18;;;;;;;9.70;7.15;;;;;;;-2.15;100.00;96572.94;4990920;28;20063;-57
2022/01/07 07:02:46;;;;;;;8.05;7.00;;;;;;;-2.07;100.00;96568.28;4989547;28;20523;-58
2022/01/07 07:05:15;;;;;;;13.30;9.02;;;;;;;-2.10;100.00;96573.56;4989567;28;20078;-57
2022/01/07 07:07:43;;;;;;;9.23;7.40;;;;;;;-2.39;100.00;96573.03;4984636;28;20616;-59
2022/01/07 07:10:11;;;;;;;9.15;7.30;;;;;;;-2.51;100.00;96578.72;4995231;28;20082;-57
2022/01/07 07:12:41;;;;;;;8.07;7.28;;;;;;;-2.09;100.00;96575.28;4987666;28;20070;-57
2022/01/07 07:15:10;;;;;;;10.60;7.70;;;;;;;-2.41;100.00;96572.28;4985427;28;20070;-58
2022/01/07 07:17:39;;;;;;;9.80;8.50;;;;;;;-2.18;100.00;96570.47;4988112;28;20081;-57
2022/01/07 07:20:08;;;;;;;18.33;13.35;;;;;;;-2.04;100.00;96568.16;4989367;28;20045;-55
2022/01/07 07:22:36;;;;;;;8.93;8.02;;;;;;;-2.05;100.00;96561.31;4988555;28;20077;-59
2022/01/07 07:25:06;;;;;;;10.38;6.70;;;;;;;-1.89;100.00;96565.81;4991642;28;20544;-54
2022/01/07 07:27:36;;;;;;;7.60;6.80;;;;;;;-1.93;100.00;96567.69;4989593;28;20069;-59
2022/01/07 07:30:07;;;;;;;7.03;6.32;;;;;;;-2.03;100.00;96576.72;4991049;28;20061;-56
2022/01/07 07:32:37;;;;;;;7.88;6.22;;;;;;;-2.20;100.00;96586.06;4989010;28;20065;-59
2022/01/07 07:36:26;;;;;;;16.55;10.43;;;;;;;-2.31;100.00;96579.63;4986496;28;20059;-61
2022/01/07 07:37:58;;;;;;;17.00;10.73;;;;;;;-2.18;100.00;96576.47;4992078;28;20058;-56
2022/01/07 07:40:26;;;;;;;12.85;9.27;;;;;;;-1.85;100.00;96578.56;4990034;28;20085;-55
2022/01/07 07:42:55;;;;;;;8.73;6.85;;;;;;;-1.87;100.00;96580.34;4986586;28;20065;-54
2022/01/07 07:45:25;;;;;;;9.88;7.15;;;;;;;-1.85;100.00;96578.56;4987208;28;20065;-59
2022/01/07 07:47:53;;;;;;;7.47;6.50;;;;;;;-2.06;100.00;96576.88;4986440;28;20551;-57
2022/01/07 07:50:21;;;;;;;9.65;6.97;;;;;;;-1.84;100.00;96575.06;4986477;28;20065;-55
2022/01/07 07:52:50;;;;;;;8.73;6.82;;;;;;;-1.72;100.00;96571.94;4986838;28;20062;-58
2022/01/07 07:55:18;;;;;;;8.25;6.88;;;;;;;-1.57;100.00;96574.75;4989489;28;20082;-57
2022/01/07 07:57:47;;;;;;;11.05;7.82;;;;;;;-1.32;100.00;96577.09;4999830;28;20088;-58
2022/01/07 08:00:16;;;;;;;9.52;7.30;;;;;;;-1.19;100.00;96575.63;4984625;28;20062;-58
2022/01/07 08:02:46;;;;;;;11.60;7.35;;;;;;;-1.50;100.00;96582.19;4992009;28;20070;-59
2022/01/07 08:05:15;;;;;;;;;;;;;;;-1.40;100.00;96585.19;4989875;28;20437;-56
2022/01/07 08:07:43;;;;;;;9.30;7.35;;;;;;;-1.26;100.00;96588.00;4984306;28;20053;-58
2022/01/07 08:10:12;;;;;;;11.20;7.25;;;;;;;-1.22;100.00;96589.53;4995255;28;20521;-56
2022/01/07 08:12:53;;;;;;;12.23;7.43;;;;;;;-1.38;100.00;96585.13;4985816;28;20253;-58
2022/01/07 08:18:24;;;;;;;9.23;7.63;;;;;;;-0.96;100.00;96566.81;4947181;28;20078;-54
2022/01/07 08:20:53;;;;;;;10.23;7.47;;;;;;;-1.08;100.00;96570.78;4938358;28;20111;-56
2022/01/07 08:23:21;;;;;;;7.57;6.78;;;;;;;-1.10;100.00;96574.34;4966400;28;20065;-53
2022/01/07 08:25:50;;;;;;;8.43;7.20;;;;;;;-1.01;100.00;96576.53;4997706;28;20538;-58
2022/01/07 08:28:19;;;;;;;7.80;6.93;;;;;;;-0.84;100.00;96571.38;4988931;28;20550;-58
2022/01/07 08:31:12;;;;;;;7.78;6.90;;;;;;;-0.91;100.00;96575.19;4981823;28;20080;-54
2022/01/07 08:36:29;;;;;;;9.13;7.05;;;;;;;-1.05;100.00;96557.72;4988671;28;21010;-56
2022/01/07 08:38:58;;;;;;;8.68;7.43;;;;;;;-0.81;100.00;96567.81;4979285;28;20053;-58
2022/01/07 08:41:28;;;;;;;11.23;6.95;;;;;;;-0.86;100.00;96569.78;4987066;28;20074;-59
2022/01/07 08:43:57;;;;;;;7.18;6.50;;;;;;;-1.05;100.00;96567.22;4985868;28;20223;-56
2022/01/07 08:46:26;;;;;;;8.23;6.78;;;;;;;-1.08;100.00;96565.59;4987697;28;20496;-56
2022/01/07 08:48:58;;;;;;;9.52;8.00;;;;;;;-0.88;100.00;96562.09;4985918;28;21505;-59
2022/01/07 08:51:27;;;;;;;9.00;7.00;;;;;;;-0.77;100.00;96562.41;4986780;28;20061;-56
2022/01/07 08:53:56;;;;;;;10.05;7.35;;;;;;;-0.83;100.00;96560.13;4985721;28;20073;-56
2022/01/07 08:56:26;;;;;;;9.13;6.80;;;;;;;-0.88;100.00;96556.91;4990178;28;20077;-61
2022/01/07 08:58:56;;;;;;;11.33;7.10;;;;;;;-0.62;100.00;96566.06;4982248;28;20479;-57
2022/01/07 09:01:27;;;;;;;8.82;6.93;;;;;;;-0.66;100.00;96561.91;5003926;28;20070;-58
2022/01/07 09:03:57;;;;;;;6.53;5.78;;;;;;;-0.60;100.00;96569.38;4989171;28;20416;-57
2022/01/07 09:06:26;;;;;;;8.40;6.75;;;;;;;-0.11;100.00;96566.97;4984801;28;20066;-57
2022/01/07 09:08:54;;;;;;;8.75;6.05;;;;;;;-0.49;100.00;96561.94;5001020;28;20062;-56
2022/01/07 09:11:22;;;;;;;8.18;6.50;;;;;;;-0.07;100.00;96560.75;4993301;28;20082;-57
2022/01/07 09:13:52;;;;;;;7.57;6.30;;;;;;;-0.13;100.00;96565.41;4981744;28;20103;-57
2022/01/07 09:16:23;;;;;;;6.55;5.80;;;;;;;0.00;100.00;96563.88;4987481;28;20077;-57
2022/01/07 09:18:52;;;;;;;7.25;6.55;;;;;;;-0.05;100.00;96551.13;4989823;28;20073;-57
2022/01/07 09:21:21;;;;;;;8.40;6.70;;;;;;;0.03;100.00;96552.47;4985133;28;20081;-58
2022/01/07 09:23:50;;;;;;;8.63;6.22;;;;;;;0.13;100.00;96551.94;4984368;28;20070;-56
2022/01/07 09:26:18;;;;;;;7.05;6.10;;;;;;;0.26;100.00;96557.34;4983373;28;20520;-58
2022/01/07 09:28:47;;;;;;;7.25;6.50;;;;;;;0.13;100.00;96557.13;4983658;28;20069;-58
2022/01/07 09:31:17;;;;;;;7.53;6.05;;;;;;;0.13;100.00;96551.94;4989437;28;20077;-59
2022/01/07 09:33:46;;;;;;;7.10;6.13;;;;;;;0.17;100.00;96545.69;4983514;28;20077;-61
2022/01/07 09:36:35;;;;;;;7.10;6.40;;;;;;;0.37;100.00;96536.03;4987804;28;20073;-58
2022/01/07 09:39:03;;;;;;;6.80;6.03;;;;;;;0.24;100.00;96541.00;4991858;28;20070;-54
2022/01/07 09:41:32;;;;;;;8.07;6.40;;;;;;;0.08;100.00;96540.13;4984060;28;20545;-60
2022/01/07 09:44:01;;;;;;;7.00;5.88;;;;;;;0.25;100.00;96539.28;4983813;28;20084;-58
2022/01/07 09:46:30;;;;;;;9.10;6.40;;;;;;;0.50;100.00;96526.69;4987018;28;20096;-56
2022/01/07 09:49:07;;;;;;;9.48;6.38;;;;;;;0.62;100.00;96526.03;4983187;28;20046;-58
2022/01/07 09:51:40;;;;;;;8.90;6.38;;;;;;;0.62;100.00;96528.63;4983598;28;20070;-58
2022/01/07 09:54:09;;;;;;;10.38;5.85;;;;;;;0.82;100.00;96521.50;4986030;28;20062;-60
2022/01/07 09:56:39;;;;;;;6.60;5.85;;;;;;;0.71;100.00;96532.47;4982995;28;20074;-58
2022/01/07 09:59:08;;;;;;;8.63;5.63;;;;;;;0.62;100.00;96520.84;4980431;28;20085;-58
2022/01/07 10:01:54;;;;;;;5.95;5.20;;;;;;;0.56;100.00;96515.16;4984136;28;20066;-56
2022/01/07 10:04:28;;;;;;;6.85;5.60;;;;;;;0.93;100.00;96514.00;4984581;28;20078;-56
2022/01/07 10:07:20;;;;;;;5.18;4.68;;;;;;;0.71;100.00;96519.50;4989407;28;20461;-59
2022/01/07 10:09:59;;;;;;;5.80;4.60;;;;;;;0.82;100.00;96514.56;4989408;28;20433;-59
2022/01/07 10:12:29;;;;;;;8.10;5.20;;;;;;;0.61;100.00;96529.53;4987784;28;20563;-56
2022/01/07 10:15:12;;;;;;;5.07;4.63;;;;;;;0.59;100.00;96523.59;4995226;28;20070;-55
2022/01/07 10:17:41;;;;;;;5.68;4.72;;;;;;;0.79;100.00;96519.94;5000911;28;20062;-55
2022/01/07 10:20:09;;;;;;;5.25;4.78;;;;;;;0.89;100.00;96517.66;4989210;28;20762;-58
2022/01/07 10:22:53;;;;;;;7.28;4.40;;;;;;;0.52;100.00;96514.47;4988093;28;20074;-58
2022/01/07 10:25:25;;;;;;;5.43;4.93;;;;;;;0.58;100.00;96510.69;5003455;28;20120;-58
2022/01/07 10:27:59;;;;;;;6.80;5.00;;;;;;;0.54;100.00;96499.66;4987225;28;21524;-57
2022/01/07 10:30:34;;;;;;;5.68;5.10;;;;;;;0.93;100.00;96503.63;4984687;28;20069;-61
2022/01/07 10:33:17;;;;;;;5.78;5.18;;;;;;;0.96;100.00;96495.63;4988981;28;20129;-58
2022/01/07 10:35:45;;;;;;;5.13;4.35;;;;;;;0.51;100.00;96491.19;4986832;28;20090;-58
2022/01/07 10:38:20;;;;;;;5.05;4.60;;;;;;;0.73;100.00;96496.91;4987178;28;20073;-59
2022/01/07 10:40:50;;;;;;;5.40;4.63;;;;;;;0.99;100.00;96479.06;4992782;28;20069;-56
2022/01/07 10:43:20;;;;;;;6.32;4.57;;;;;;;1.12;100.00;96478.28;4989134;28;20078;-58
2022/01/07 10:45:52;;;;;;;5.72;4.95;;;;;;;1.32;100.00;96476.31;4989909;28;20645;-57
2022/01/07 10:48:40;;;;;;;5.05;4.55;;;;;;;1.14;100.00;96468.66;4989525;28;20089;-60
2022/01/07 10:51:09;;;;;;;5.03;4.50;;;;;;;1.11;100.00;96468.81;4989720;28;20068;-57
2022/01/07 10:53:39;;;;;;;5.97;4.55;;;;;;;0.97;100.00;96460.16;4988116;28;20093;-59
2022/01/07 10:56:11;;;;;;;5.05;4.18;;;;;;;1.01;100.00;96462.47;4988410;28;20061;-60
2022/01/07 10:59:03;;;;;;;6.85;4.55;;;;;;;1.29;100.00;96453.94;4990110;28;20438;-57
2022/01/07 11:01:39;;;;;;;6.50;4.57;;;;;;;1.53;100.00;96449.09;4986174;28;20552;-55
2022/01/07 11:04:10;;;;;;;4.85;4.45;;;;;;;1.35;100.00;96450.16;4991758;28;20484;-52
2022/01/07 11:06:39;;;;;;;5.30;4.80;;;;;;;1.46;100.00;96447.78;4988014;28;20544;-56
2022/01/07 11:09:10;;;;;;;4.90;4.40;;;;;;;1.71;100.00;96449.78;4988441;28;20074;-58
2022/01/07 11:11:49;;;;;;;5.28;4.50;;;;;;;1.67;100.00;96449.13;4986938;28;20073;-56
2022/01/07 11:14:20;;;;;;;4.38;3.97;;;;;;;1.70;100.00;96445.50;4991852;28;20062;-63
2022/01/07 11:16:49;;;;;;;4.45;4.05;;;;;;;1.50;100.00;96438.88;4989458;28;20077;-59
2022/01/07 11:19:26;;;;;;;4.53;4.13;;;;;;;1.52;100.00;96438.81;4993146;28;20088;-62
2022/01/07 11:21:55;;;;;;;5.35;4.25;;;;;;;1.75;100.00;96437.44;4985632;28;20070;-58
2022/01/07 11:24:50;;;;;;;4.90;4.40;;;;;;;1.88;100.00;96428.81;4993343;28;20065;-58
2022/01/07 11:27:21;;;;;;;4.25;3.88;;;;;;;1.66;100.00;96421.47;4978771;28;20072;-60
2022/01/07 11:30:11;;;;;;;;;;;;;;;1.57;100.00;96427.19;4990081;28;20070;-58
2022/01/07 11:32:40;;;;;;;5.63;4.35;;;;;;;1.49;100.00;96420.78;4987204;28;19949;-61
2022/01/07 11:35:46;;;;;;;4.77;4.37;;;;;;;1.66;100.00;96408.47;4988309;28;20066;-58
2022/01/07 11:38:33;;;;;;;4.95;4.18;;;;;;;1.78;100.00;96411.25;4983761;28;20477;-59
2022/01/07 11:41:05;;;;;;;5.95;4.50;;;;;;;2.04;100.00;96407.91;4985231;28;20068;-59
2022/01/07 11:43:37;;;;;;;7.40;4.30;;;;;;;2.04;100.00;96402.72;4985139;28;20465;-58